createdAt,value
2024-02-11T00:00:38.195Z,1.33
2024-02-11T00:03:05.519Z,1.60
2024-02-11T00:05:33.011Z,1.40
2024-02-11T00:07:59.946Z,1.00
2024-02-11T00:10:26.833Z,2.20
2024-02-11T00:12:53.719Z,1.30
2024-02-11T00:15:20.542Z,1.37
2024-02-11T00:17:48.341Z,1.30
2024-02-11T00:20:17.497Z,2.17
2024-02-11T00:22:46.095Z,0.83
2024-02-11T00:25:13.619Z,1.23
2024-02-11T00:27:45.829Z,2.03
2024-02-11T00:30:13.132Z,0.80
2024-02-11T00:32:40.323Z,1.20
2024-02-11T00:35:08.443Z,1.20
2024-02-11T00:37:36.437Z,1.33
2024-02-11T00:40:07.444Z,0.87
2024-02-11T00:42:36.375Z,2.20
2024-02-11T00:45:05.129Z,1.50
2024-02-11T00:47:32.200Z,0.63
2024-02-11T00:49:59.229Z,1.63
2024-02-11T00:52:26.192Z,1.40
2024-02-11T00:54:53.052Z,1.27
2024-02-11T00:57:21.505Z,1.57
2024-02-11T00:59:48.386Z,0.93
2024-02-11T01:02:15.686Z,1.37
2024-02-11T01:04:42.950Z,1.20
2024-02-11T01:07:09.976Z,0.87
2024-02-11T01:09:36.979Z,0.60
2024-02-11T01:12:04.150Z,0.83
2024-02-11T01:14:31.347Z,0.83
2024-02-11T01:16:58.914Z,1.37
2024-02-11T01:19:26.038Z,1.60
2024-02-11T01:21:55.043Z,1.57
2024-02-11T01:24:22.931Z,0.57
2024-02-11T01:26:50.323Z,0.43
2024-02-11T01:29:19.944Z,1.33
2024-02-11T01:31:48.466Z,0.67
2024-02-11T01:34:16.864Z,0.90
2024-02-11T01:36:47.315Z,0.63
2024-02-11T01:39:17.299Z,0.50
2024-02-11T01:41:44.262Z,0.67
2024-02-11T01:44:11.349Z,0.67
2024-02-11T01:46:40.004Z,0.70
2024-02-11T01:49:07.429Z,0.83
2024-02-11T01:51:35.797Z,0.60
2024-02-11T01:54:05.743Z,0.70
2024-02-11T01:56:33.963Z,0.73
2024-02-11T01:59:01.618Z,0.70
2024-02-11T02:01:29.445Z,0.87
2024-02-11T02:03:57.312Z,0.83
2024-02-11T02:06:25.287Z,0.53
2024-02-11T02:08:54.029Z,0.90
2024-02-11T02:11:23.652Z,1.20
2024-02-11T02:13:50.753Z,0.90
2024-02-11T02:16:17.775Z,0.87
2024-02-11T02:18:47.946Z,0.77
2024-02-11T02:21:14.986Z,1.00
2024-02-11T02:23:41.824Z,0.80
2024-02-11T02:26:09.339Z,0.47
2024-02-11T02:28:37.303Z,0.70
2024-02-11T02:31:07.144Z,0.63
2024-02-11T02:33:35.105Z,1.03
2024-02-11T02:36:04.788Z,0.67
2024-02-11T02:38:31.898Z,1.03
2024-02-11T02:40:58.921Z,0.60
2024-02-11T02:43:27.360Z,0.83
2024-02-11T02:45:54.303Z,0.50
2024-02-11T02:48:21.303Z,0.80
2024-02-11T02:50:48.163Z,1.80
2024-02-11T02:53:17.437Z,1.00
2024-02-11T02:55:44.434Z,0.50
2024-02-11T02:58:15.898Z,0.97
2024-02-11T03:00:43.777Z,1.20
2024-02-11T03:03:11.335Z,0.70
2024-02-11T03:05:43.070Z,0.70
2024-02-11T03:08:10.797Z,1.00
2024-02-11T03:10:38.863Z,0.83
2024-02-11T03:13:06.260Z,1.10
2024-02-11T03:15:36.097Z,0.57
2024-02-11T03:18:03.631Z,0.73
2024-02-11T03:20:30.704Z,0.73
2024-02-11T03:22:58.023Z,0.43
2024-02-11T03:25:25.042Z,0.77
2024-02-11T03:27:55.917Z,0.70
2024-02-11T03:30:23.699Z,0.93
2024-02-11T03:32:52.186Z,0.40
2024-02-11T03:35:19.701Z,0.70
2024-02-11T03:37:46.935Z,0.50
2024-02-11T03:40:17.463Z,0.67
2024-02-11T03:42:45.242Z,1.23
2024-02-11T03:45:12.963Z,0.43
2024-02-11T03:47:40.909Z,0.50
2024-02-11T03:50:15.216Z,0.70
2024-02-11T03:52:43.273Z,0.70
2024-02-11T03:55:12.378Z,0.50
2024-02-11T03:57:39.960Z,1.20
2024-02-11T04:00:18.296Z,1.00
2024-02-11T04:02:45.166Z,0.60
2024-02-11T04:05:14.009Z,0.70
2024-02-11T04:07:47.698Z,1.10
2024-02-11T04:10:29.390Z,0.50
2024-02-11T04:12:59.997Z,1.07
2024-02-11T04:15:28.505Z,0.80
2024-02-11T04:17:58.042Z,0.60
2024-02-11T04:20:26.407Z,0.80
2024-02-11T04:23:02.383Z,0.60
2024-02-11T04:25:31.963Z,0.50
2024-02-11T04:27:58.912Z,1.00
2024-02-11T04:30:29.297Z,1.10
2024-02-11T04:32:56.925Z,1.70
2024-02-11T04:35:25.901Z,0.60
2024-02-11T04:37:56.890Z,1.00
2024-02-11T04:40:28.118Z,0.80
2024-02-11T04:42:58.221Z,0.77
2024-02-11T04:45:26.653Z,0.60
2024-02-11T04:48:05.490Z,0.83
2024-02-11T04:50:33.764Z,0.70
2024-02-11T04:53:03.190Z,0.73
2024-02-11T04:55:45.560Z,0.73
2024-02-11T04:58:22.095Z,0.63
2024-02-11T05:00:52.708Z,0.50
2024-02-11T05:03:20.791Z,0.87
2024-02-11T05:05:54.139Z,1.43
2024-02-11T05:08:24.882Z,1.20
2024-02-11T05:10:54.990Z,1.23
2024-02-11T05:13:25.205Z,0.97
2024-02-11T05:15:52.809Z,1.03
2024-02-11T05:18:22.836Z,1.07
2024-02-11T05:20:49.979Z,1.13
2024-02-11T05:23:18.080Z,0.80
2024-02-11T05:25:45.945Z,0.47
2024-02-11T05:28:17.753Z,0.90
2024-02-11T05:30:50.636Z,0.97
2024-02-11T05:33:19.946Z,0.70
2024-02-11T05:35:48.752Z,0.57
2024-02-11T05:38:16.508Z,1.20
2024-02-11T05:40:50.446Z,1.43
2024-02-11T05:43:18.069Z,0.83
2024-02-11T05:45:45.618Z,1.30
2024-02-11T05:48:14.933Z,0.87
2024-02-11T05:50:42.832Z,1.17
2024-02-11T05:53:10.404Z,0.60
2024-02-11T05:55:39.589Z,0.70
2024-02-11T05:58:06.778Z,0.57
2024-02-11T06:00:34.230Z,1.20
2024-02-11T06:03:02.340Z,1.30
2024-02-11T06:05:30.507Z,1.43
2024-02-11T06:08:03.240Z,0.93
2024-02-11T06:10:35.476Z,1.47
2024-02-11T06:13:07.230Z,0.70
2024-02-11T06:15:36.570Z,0.90
2024-02-11T06:18:03.617Z,1.07
2024-02-11T06:20:31.737Z,1.20
2024-02-11T06:22:59.022Z,1.83
2024-02-11T06:25:26.191Z,0.53
2024-02-11T06:27:54.401Z,1.17
2024-02-11T06:30:22.368Z,0.80
2024-02-11T06:32:51.969Z,2.03
2024-02-11T06:35:21.382Z,0.87
2024-02-11T06:37:51.571Z,1.77
2024-02-11T06:40:24.735Z,0.57
2024-02-11T06:42:53.112Z,0.80
2024-02-11T06:45:21.362Z,0.80
2024-02-11T06:47:48.783Z,1.73
2024-02-11T06:50:16.675Z,1.23
2024-02-11T06:52:44.836Z,0.57
2024-02-11T06:55:13.346Z,0.70
2024-02-11T06:57:46.274Z,1.47
2024-02-11T07:00:17.019Z,1.53
2024-02-11T07:02:46.946Z,1.80
2024-02-11T07:05:17.602Z,0.63
2024-02-11T07:07:46.362Z,1.03
2024-02-11T07:10:15.722Z,2.07
2024-02-11T07:12:43.443Z,3.80
2024-02-11T07:15:12.610Z,2.20
2024-02-11T07:17:42.600Z,1.80
2024-02-11T07:20:13.065Z,1.10
2024-02-11T07:22:42.264Z,0.80
2024-02-11T07:25:09.765Z,0.77
2024-02-11T07:27:37.071Z,1.20
2024-02-11T07:30:04.414Z,1.50
2024-02-11T07:32:33.138Z,1.20
2024-02-11T07:35:00.529Z,1.50
2024-02-11T07:37:27.493Z,1.03
2024-02-11T07:39:54.890Z,1.10
2024-02-11T07:42:24.869Z,0.93
2024-02-11T07:44:53.250Z,0.90
2024-02-11T07:47:22.041Z,1.27
2024-02-11T07:49:50.901Z,0.60
2024-02-11T07:52:18.562Z,1.23
2024-02-11T07:54:50.196Z,1.17
2024-02-11T07:57:18.711Z,2.70
2024-02-11T07:59:47.004Z,4.03
2024-02-11T08:02:14.230Z,2.80
2024-02-11T08:04:41.487Z,1.70
2024-02-11T08:07:08.522Z,0.90
2024-02-11T08:09:35.747Z,0.97
2024-02-11T08:12:04.045Z,0.77
2024-02-11T08:14:32.673Z,1.57
2024-02-11T08:17:00.304Z,0.87
2024-02-11T08:19:28.002Z,0.73
2024-02-11T08:22:02.658Z,0.77
2024-02-11T08:24:30.408Z,1.30
2024-02-11T08:26:57.255Z,1.00
2024-02-11T08:29:24.118Z,0.70
2024-02-11T08:31:51.584Z,0.70
2024-02-11T08:34:19.808Z,1.17
2024-02-11T08:36:46.814Z,1.03
2024-02-11T08:39:15.536Z,1.10
2024-02-11T08:41:42.716Z,1.13
2024-02-11T08:44:11.084Z,1.13
2024-02-11T08:46:39.510Z,0.80
2024-02-11T08:49:06.904Z,1.57
2024-02-11T08:51:34.056Z,0.73
2024-02-11T08:54:00.952Z,1.03
2024-02-11T08:56:29.033Z,0.90
2024-02-11T08:58:55.999Z,0.73
2024-02-11T09:01:22.868Z,0.63
2024-02-11T09:03:49.792Z,1.43
2024-02-11T09:06:16.814Z,0.60
2024-02-11T09:08:43.786Z,0.80
2024-02-11T09:11:14.800Z,0.70
2024-02-11T09:13:43.906Z,1.37
2024-02-11T09:16:12.959Z,1.20
2024-02-11T09:18:39.960Z,1.07
2024-02-11T09:21:06.903Z,0.93
2024-02-11T09:23:33.805Z,0.50
2024-02-11T09:26:00.890Z,0.80
2024-02-11T09:28:27.894Z,1.40
2024-02-11T09:30:54.721Z,0.93
2024-02-11T09:33:21.850Z,0.70
2024-02-11T09:35:50.168Z,1.00
2024-02-11T09:38:18.229Z,1.03
2024-02-11T09:40:45.526Z,0.80
2024-02-11T09:43:13.912Z,1.17
2024-02-11T09:45:42.894Z,0.87
2024-02-11T09:48:10.639Z,1.03
2024-02-11T09:50:39.328Z,0.73
2024-02-11T09:53:08.863Z,1.47
2024-02-11T09:55:38.179Z,1.20
2024-02-11T09:58:05.308Z,1.33
2024-02-11T10:00:32.195Z,1.10
2024-02-11T10:03:03.053Z,1.20
2024-02-11T10:05:37.097Z,0.90
2024-02-11T10:08:15.327Z,1.40
2024-02-11T10:10:44.744Z,1.23
2024-02-11T10:13:20.877Z,1.30
2024-02-11T10:15:49.387Z,1.03
2024-02-11T10:18:20.633Z,1.13
2024-02-11T10:20:48.868Z,1.47
2024-02-11T10:23:16.790Z,0.83
2024-02-11T10:25:48.571Z,1.17
2024-02-11T10:28:15.637Z,1.67
2024-02-11T10:30:42.542Z,1.03
2024-02-11T10:33:11.635Z,0.83
2024-02-11T10:35:38.857Z,2.37
2024-02-11T10:38:09.218Z,1.07
2024-02-11T10:40:39.957Z,1.00
2024-02-11T10:43:07.500Z,0.67
2024-02-11T10:45:36.615Z,1.57
2024-02-11T10:48:05.300Z,0.70
2024-02-11T10:50:34.122Z,0.70
2024-02-11T10:53:05.137Z,1.43
2024-02-11T10:55:46.745Z,0.83
2024-02-11T10:58:17.405Z,1.57
2024-02-11T11:00:47.166Z,1.10
2024-02-11T11:03:17.474Z,0.97
2024-02-11T11:05:46.002Z,1.57
2024-02-11T11:08:14.150Z,1.50
2024-02-11T11:10:41.280Z,0.90
2024-02-11T11:13:10.485Z,1.23
2024-02-11T11:15:38.894Z,0.93
2024-02-11T11:18:06.345Z,1.53
2024-02-11T11:20:34.969Z,1.40
2024-02-11T11:23:04.160Z,2.47
2024-02-11T11:25:38.490Z,3.23
2024-02-11T11:28:32.089Z,2.43
2024-02-11T11:30:59.655Z,1.80
2024-02-11T11:33:31.996Z,1.90
2024-02-11T11:36:03.255Z,2.27
2024-02-11T11:38:30.475Z,1.83
2024-02-11T11:40:58.258Z,1.53
2024-02-11T11:43:25.607Z,1.67
2024-02-11T11:45:58.275Z,1.77
2024-02-11T11:48:27.294Z,0.90
2024-02-11T11:50:58.583Z,1.10
2024-02-11T11:53:26.259Z,0.97
2024-02-11T11:55:54.796Z,1.60
2024-02-11T11:58:23.860Z,1.27
2024-02-11T12:01:02.502Z,0.83
2024-02-11T12:03:31.068Z,1.40
2024-02-11T12:05:58.941Z,1.40
2024-02-11T12:08:27.477Z,1.43
2024-02-11T12:11:02.192Z,1.40
2024-02-11T12:13:36.413Z,1.43
2024-02-11T12:16:05.858Z,1.20
2024-02-11T12:18:38.993Z,0.93
2024-02-11T12:21:07.674Z,1.57
2024-02-11T12:23:38.105Z,1.00
2024-02-11T12:26:06.209Z,1.23
2024-02-11T12:28:34.450Z,1.73
2024-02-11T12:31:08.123Z,1.03
2024-02-11T12:33:43.460Z,1.13
2024-02-11T12:36:15.432Z,1.37
2024-02-11T12:38:44.893Z,0.87
2024-02-11T12:41:15.524Z,0.60
2024-02-11T12:43:46.466Z,0.90
2024-02-11T12:46:13.740Z,0.53
2024-02-11T12:48:42.669Z,0.93
2024-02-11T12:51:15.117Z,0.73
2024-02-11T12:53:43.382Z,1.13
2024-02-11T12:56:12.226Z,0.80
2024-02-11T12:58:44.011Z,0.57
2024-02-11T13:01:15.636Z,1.70
2024-02-11T13:03:44.405Z,0.90
2024-02-11T13:06:11.928Z,1.17
2024-02-11T13:08:40.689Z,0.80
2024-02-11T13:11:08.171Z,1.17
2024-02-11T13:13:39.523Z,0.90
2024-02-11T13:16:11.925Z,1.40
2024-02-11T13:18:39.126Z,0.97
2024-02-11T13:21:08.360Z,0.60
2024-02-11T13:23:37.370Z,0.80
2024-02-11T13:26:05.164Z,0.80
2024-02-11T13:28:33.735Z,0.50
2024-02-11T13:31:09.972Z,4.60
2024-02-11T13:33:46.489Z,0.97
2024-02-11T13:36:14.011Z,4.40
2024-02-11T13:38:40.875Z,1.40
2024-02-11T13:41:08.745Z,2.73
2024-02-11T13:43:35.862Z,1.77
2024-02-11T13:46:02.744Z,0.93
2024-02-11T13:48:29.892Z,1.43
2024-02-11T13:50:56.827Z,1.17
2024-02-11T13:53:24.071Z,1.90
2024-02-11T13:55:50.981Z,2.00
2024-02-11T13:58:17.957Z,1.67
2024-02-11T14:00:45.181Z,0.80
2024-02-11T14:03:12.330Z,0.50
2024-02-11T14:05:42.218Z,1.03
2024-02-11T14:08:09.853Z,0.73
2024-02-11T14:10:36.902Z,0.57
2024-02-11T14:13:06.129Z,0.27
2024-02-11T14:15:35.159Z,0.67
2024-02-11T14:18:05.307Z,0.60
2024-02-11T14:20:32.706Z,2.10
2024-02-11T14:22:59.689Z,2.90
2024-02-11T14:25:26.614Z,1.50
2024-02-11T14:27:54.717Z,0.90
2024-02-11T14:30:22.377Z,1.60
2024-02-11T14:32:50.321Z,0.40
2024-02-11T14:35:20.234Z,1.10
2024-02-11T14:37:47.933Z,1.00
2024-02-11T14:40:16.294Z,1.63
2024-02-11T14:42:45.936Z,2.97
2024-02-11T14:45:14.415Z,3.57
2024-02-11T14:47:42.123Z,3.87
2024-02-11T14:50:10.483Z,0.97
2024-02-11T14:52:38.624Z,1.77
2024-02-11T14:55:07.320Z,2.57
2024-02-11T14:57:35.262Z,1.03
2024-02-11T15:00:03.546Z,1.33
2024-02-11T15:02:32.085Z,1.10
2024-02-11T15:04:59.150Z,0.60
2024-02-11T15:07:27.235Z,0.80
2024-02-11T15:09:57.280Z,2.07
2024-02-11T15:12:27.129Z,0.83
2024-02-11T15:14:54.866Z,1.83
2024-02-11T15:17:22.157Z,1.10
2024-02-11T15:19:49.692Z,1.77
2024-02-11T15:22:18.134Z,0.53
2024-02-11T15:24:46.179Z,0.30
2024-02-11T15:27:16.275Z,1.40
2024-02-11T15:29:44.563Z,1.53
2024-02-11T15:32:12.308Z,2.13
2024-02-11T15:34:39.989Z,1.10
2024-02-11T15:37:09.218Z,0.60
2024-02-11T15:39:36.050Z,1.73
2024-02-11T15:42:05.473Z,1.10
2024-02-11T15:44:33.410Z,1.40
2024-02-11T15:47:00.902Z,3.50
2024-02-11T15:49:28.797Z,2.53
2024-02-11T15:51:56.197Z,0.77
2024-02-11T15:54:23.544Z,0.53
2024-02-11T15:56:50.800Z,0.40
2024-02-11T15:59:18.283Z,0.53
2024-02-11T16:01:45.889Z,1.30
2024-02-11T16:04:13.875Z,0.93
2024-02-11T16:06:42.035Z,0.97
2024-02-11T16:09:10.418Z,2.83
2024-02-11T16:11:37.460Z,5.80
2024-02-11T16:14:07.079Z,6.97
2024-02-11T16:16:38.782Z,5.77
2024-02-11T16:19:06.784Z,5.00
2024-02-11T16:21:33.955Z,3.23
2024-02-11T16:24:01.497Z,2.70
2024-02-11T16:26:33.550Z,2.33
2024-02-11T16:29:00.584Z,2.27
2024-02-11T16:31:27.680Z,1.63
2024-02-11T16:33:54.565Z,2.40
2024-02-11T16:36:21.844Z,1.30
2024-02-11T16:38:48.929Z,1.27
2024-02-11T16:41:16.324Z,6.00
2024-02-11T16:43:43.328Z,2.70
2024-02-11T16:46:12.071Z,4.07
2024-02-11T16:48:39.303Z,5.07
2024-02-11T16:51:06.926Z,3.23
2024-02-11T16:53:33.849Z,2.47
2024-02-11T16:56:01.442Z,1.57
2024-02-11T16:58:28.911Z,2.10
2024-02-11T17:00:57.292Z,1.80
2024-02-11T17:03:24.463Z,1.97
2024-02-11T17:05:51.756Z,3.43
2024-02-11T17:08:18.903Z,0.60
2024-02-11T17:10:46.037Z,2.27
2024-02-11T17:13:14.600Z,2.37
2024-02-11T17:15:41.998Z,5.40
2024-02-11T17:18:09.147Z,6.10
2024-02-11T17:20:36.290Z,3.73
2024-02-11T17:23:03.416Z,2.07
2024-02-11T17:25:30.514Z,1.70
2024-02-11T17:27:58.183Z,1.13
2024-02-11T17:30:26.241Z,1.30
2024-02-11T17:32:59.610Z,0.83
2024-02-11T17:35:30.920Z,2.10
2024-02-11T17:37:59.215Z,1.87
2024-02-11T17:40:29.674Z,1.13
2024-02-11T17:42:57.170Z,0.73
2024-02-11T17:45:24.595Z,3.73
2024-02-11T17:47:55.909Z,3.10
2024-02-11T17:50:23.138Z,3.33
2024-02-11T17:52:50.261Z,1.43
2024-02-11T17:55:18.346Z,1.47
2024-02-11T17:57:48.557Z,1.10
2024-02-11T18:00:19.414Z,1.13
2024-02-11T18:02:48.106Z,1.40
2024-02-11T18:05:15.313Z,1.90
2024-02-11T18:07:48.103Z,1.10
2024-02-11T18:10:16.049Z,1.63
2024-02-11T18:12:45.276Z,0.87
2024-02-11T18:15:13.525Z,1.10
2024-02-11T18:17:42.309Z,0.97
2024-02-11T18:20:09.983Z,0.90
2024-02-11T18:22:42.183Z,1.10
2024-02-11T18:25:10.477Z,1.33
2024-02-11T18:27:38.181Z,1.10
2024-02-11T18:30:08.325Z,1.30
2024-02-11T18:32:38.487Z,1.00
2024-02-11T18:35:12.173Z,1.20
2024-02-11T18:37:39.711Z,0.73
2024-02-11T18:40:10.676Z,1.07
2024-02-11T18:42:37.871Z,1.33
2024-02-11T18:45:05.395Z,0.93
2024-02-11T18:47:32.361Z,0.70
2024-02-11T18:49:59.996Z,1.13
2024-02-11T18:52:28.676Z,1.20
2024-02-11T18:54:55.753Z,0.93
2024-02-11T18:57:22.685Z,1.10
2024-02-11T18:59:49.734Z,0.87
2024-02-11T19:02:16.637Z,0.60
2024-02-11T19:04:43.992Z,0.63
2024-02-11T19:07:14.694Z,1.13
2024-02-11T19:09:43.670Z,0.60
2024-02-11T19:12:13.577Z,0.40
2024-02-11T19:14:41.608Z,0.37
2024-02-11T19:17:12.064Z,0.30
2024-02-11T19:19:39.107Z,0.23
2024-02-11T19:22:13.761Z,0.30
2024-02-11T19:24:44.740Z,0.20
2024-02-11T19:27:14.843Z,0.20
2024-02-11T19:29:41.720Z,0.43
2024-02-11T19:32:08.963Z,0.20
2024-02-11T19:34:38.884Z,0.20
2024-02-11T19:37:09.097Z,0.20
2024-02-11T19:39:36.724Z,0.27
2024-02-11T19:42:04.249Z,0.23
2024-02-11T19:44:32.086Z,0.40
2024-02-11T19:46:59.968Z,0.20
2024-02-11T19:49:27.228Z,0.30
2024-02-11T19:51:54.270Z,0.30
2024-02-11T19:54:21.233Z,0.10
2024-02-11T19:56:48.095Z,0.27
2024-02-11T19:59:15.118Z,0.80
2024-02-11T20:01:42.014Z,0.40
2024-02-11T20:04:08.952Z,0.20
2024-02-11T20:06:36.008Z,0.30
2024-02-11T20:09:04.453Z,0.50
2024-02-11T20:11:32.045Z,0.40
2024-02-11T20:13:59.013Z,0.30
2024-02-11T20:16:26.007Z,0.20
2024-02-11T20:18:53.695Z,0.20
2024-02-11T20:21:20.860Z,0.30
2024-02-11T20:23:47.994Z,0.43
2024-02-11T20:26:18.395Z,0.30
2024-02-11T20:28:46.974Z,0.40
2024-02-11T20:31:14.998Z,0.40
2024-02-11T20:33:42.458Z,0.80
2024-02-11T20:36:12.972Z,0.50
2024-02-11T20:38:40.424Z,0.40
2024-02-11T20:41:10.418Z,0.60
2024-02-11T20:43:38.819Z,0.47
2024-02-11T20:46:07.091Z,0.60
2024-02-11T20:48:35.903Z,0.30
2024-02-11T20:51:03.499Z,0.47
2024-02-11T20:53:30.584Z,0.40
2024-02-11T20:55:58.038Z,0.53
2024-02-11T20:58:25.613Z,0.30
2024-02-11T21:00:52.806Z,0.80
2024-02-11T21:03:19.909Z,0.50
2024-02-11T21:05:47.372Z,0.47
2024-02-11T21:08:15.005Z,0.97
2024-02-11T21:10:42.619Z,0.60
2024-02-11T21:13:12.842Z,0.50
2024-02-11T21:15:41.229Z,0.50
2024-02-11T21:18:09.990Z,0.43
2024-02-11T21:20:37.131Z,0.80
2024-02-11T21:23:04.685Z,0.50
2024-02-11T21:25:32.445Z,0.57
2024-02-11T21:27:59.602Z,0.90
2024-02-11T21:30:28.636Z,0.57
2024-02-11T21:32:59.168Z,0.97
2024-02-11T21:35:28.473Z,0.33
2024-02-11T21:37:55.620Z,0.80
2024-02-11T21:40:22.670Z,0.60
2024-02-11T21:42:52.033Z,0.30
2024-02-11T21:45:19.319Z,0.43
2024-02-11T21:47:47.937Z,0.77
2024-02-11T21:50:15.288Z,0.77
2024-02-11T21:52:43.670Z,0.77
2024-02-11T21:55:11.683Z,0.47
2024-02-11T21:57:39.636Z,0.50
2024-02-11T22:00:12.280Z,0.50
2024-02-11T22:02:41.700Z,0.70
2024-02-11T22:05:09.600Z,0.40
2024-02-11T22:07:38.223Z,0.60
2024-02-11T22:10:09.814Z,0.60
2024-02-11T22:12:37.614Z,0.73
2024-02-11T22:15:08.446Z,0.50
2024-02-11T22:17:37.335Z,1.07
2024-02-11T22:20:10.765Z,0.47
2024-02-11T22:22:37.967Z,0.60
2024-02-11T22:25:05.203Z,0.93
2024-02-11T22:27:33.295Z,0.50
2024-02-11T22:30:00.414Z,0.40
2024-02-11T22:32:31.411Z,0.47
2024-02-11T22:34:58.825Z,0.20
2024-02-11T22:37:25.815Z,0.77
2024-02-11T22:39:53.020Z,1.07
2024-02-11T22:42:21.020Z,0.70
2024-02-11T22:44:49.132Z,0.67
2024-02-11T22:47:19.313Z,0.30
2024-02-11T22:49:48.780Z,0.47
2024-02-11T22:52:16.174Z,0.83
2024-02-11T22:54:43.142Z,0.30
2024-02-11T22:57:10.288Z,0.50
2024-02-11T22:59:37.418Z,0.23
2024-02-11T23:02:06.782Z,0.70
2024-02-11T23:04:34.837Z,0.20
2024-02-11T23:07:02.326Z,0.60
2024-02-11T23:09:30.186Z,0.77
2024-02-11T23:12:02.110Z,0.30
2024-02-11T23:14:30.723Z,0.60
2024-02-11T23:16:58.391Z,0.40
2024-02-11T23:19:29.705Z,0.67
2024-02-11T23:21:58.994Z,0.60
2024-02-11T23:24:26.869Z,0.40
2024-02-11T23:26:59.353Z,0.60
2024-02-11T23:29:30.847Z,0.40
2024-02-11T23:31:57.983Z,0.30
2024-02-11T23:34:25.404Z,0.77
2024-02-11T23:36:53.280Z,0.50
2024-02-11T23:39:24.112Z,0.40
2024-02-11T23:41:51.268Z,0.83
2024-02-11T23:44:19.447Z,0.23
2024-02-11T23:46:49.088Z,0.90
2024-02-11T23:49:23.437Z,0.50
2024-02-11T23:51:50.604Z,1.17
2024-02-11T23:54:18.235Z,0.93
2024-02-11T23:56:46.141Z,0.50
2024-02-11T23:59:13.650Z,0.60
